Time;durP1;ratioP1;P1;durP2;ratioP2;P2;SDS_P1;SDS_P2;PMS_P1;PMS_P2;Temp;Humidity;BMP_temperature;BMP_pressure;BME280_temperature;BME280_humidity;BME280_pressure;Samples;Min_cycle;Max_cycle;Signal;HPM_P1;HPM_P2
2022/01/26 00:00:55;;;;;;;31.87;15.63;;;4.00;99.90;;;;;;4911074;29;20290;-82
2022/01/26 00:06:11;;;;;;;32.47;15.67;;;4.00;99.90;;;;;;4922364;28;20303;-82
2022/01/26 00:08:39;;;;;;;31.40;16.43;;;3.90;99.90;;;;;;4915455;29;20241;-82
2022/01/26 00:11:06;;;;;;;32.10;15.70;;;4.00;99.90;;;;;;4917484;28;20228;-83
2022/01/26 00:13:34;;;;;;;32.57;17.30;;;3.90;99.90;;;;;;4911014;29;20251;-84
2022/01/26 00:16:03;;;;;;;33.00;16.37;;;3.90;99.90;;;;;;4911083;29;20236;-84
2022/01/26 00:18:34;;;;;;;34.00;16.80;;;3.90;99.90;;;;;;4921298;28;20335;-83
2022/01/26 00:21:06;;;;;;;30.07;15.57;;;3.90;99.90;;;;;;4914620;28;21026;-83
2022/01/26 00:26:37;;;;;;;33.77;17.00;;;3.90;99.90;;;;;;4878523;29;20389;-86
2022/01/26 00:29:11;;;;;;;34.23;17.70;;;3.80;99.90;;;;;;4901589;28;20698;-85
2022/01/26 00:53:26;;;;;;;31.60;15.40;;;3.70;99.90;;;;;;4907594;28;20593;-83
2022/01/26 00:55:53;;;;;;;32.03;14.97;;;3.70;99.90;;;;;;4923992;28;20243;-84
2022/01/26 00:58:19;;;;;;;27.33;14.80;;;3.70;99.90;;;;;;4915482;28;20240;-84
2022/01/26 01:00:46;;;;;;;30.30;15.30;;;3.70;99.90;;;;;;4921226;29;20240;-84
2022/01/26 01:03:13;;;;;;;30.10;16.17;;;3.70;99.90;;;;;;4918288;28;20656;-84
2022/01/26 01:05:47;;;;;;;29.87;15.17;;;3.70;99.90;;;;;;4914900;28;20232;-84
2022/01/26 01:08:18;;;;;;;27.53;14.67;;;3.70;99.90;;;;;;4921033;28;20232;-83
2022/01/26 01:10:48;;;;;;;30.30;15.03;;;3.60;99.90;;;;;;4920898;28;20620;-83
2022/01/26 01:13:18;;;;;;;32.80;15.33;;;3.70;99.90;;;;;;4921997;28;20310;-81
2022/01/26 01:15:47;;;;;;;29.07;14.83;;;3.70;99.90;;;;;;4921435;28;20255;-81
2022/01/26 01:18:20;;;;;;;27.80;13.67;;;3.60;99.90;;;;;;4915804;28;20236;-81
2022/01/26 01:21:11;;;;;;;27.67;13.80;;;3.60;99.90;;;;;;4912376;28;20265;-82
2022/01/26 01:26:41;;;;;;;28.90;13.73;;;3.70;99.90;;;;;;4916702;28;20344;-83
2022/01/26 01:29:15;;;;;;;26.30;14.37;;;3.70;99.90;;;;;;4930722;28;20977;-82
2022/01/26 01:31:45;;;;;;;31.70;15.07;;;3.70;99.90;;;;;;4914849;28;20729;-84
2022/01/26 01:34:14;;;;;;;31.50;14.30;;;3.70;99.90;;;;;;4914394;28;20232;-81
2022/01/26 01:36:43;;;;;;;26.47;14.00;;;3.70;99.90;;;;;;4934212;28;20543;-81
2022/01/26 01:39:10;;;;;;;27.00;13.60;;;3.70;99.90;;;;;;4923411;28;20232;-82
2022/01/26 01:41:41;;;;;;;31.50;14.67;;;3.70;99.90;;;;;;4914679;29;20854;-82
2022/01/26 01:44:09;;;;;;;29.63;14.30;;;3.70;99.90;;;;;;4913158;28;20387;-82
2022/01/26 01:46:37;;;;;;;30.87;15.63;;;3.70;99.90;;;;;;4922205;28;20318;-81
2022/01/26 01:49:06;;;;;;;28.57;14.10;;;3.60;99.90;;;;;;4916760;28;21024;-84
2022/01/26 01:51:36;;;;;;;32.10;14.90;;;3.60;99.90;;;;;;4915711;28;20239;-83
2022/01/26 01:54:03;;;;;;;29.93;15.30;;;3.60;99.90;;;;;;4918197;28;20227;-83
2022/01/26 01:56:30;;;;;;;28.90;14.73;;;3.60;99.90;;;;;;4919279;28;20342;-82
2022/01/26 01:58:58;;;;;;;28.93;14.27;;;3.60;99.90;;;;;;4919555;28;20262;-83
2022/01/26 02:01:26;;;;;;;27.10;13.93;;;3.60;99.90;;;;;;4914426;28;20243;-83
2022/01/26 02:03:53;;;;;;;26.40;13.80;;;3.60;99.90;;;;;;4918004;28;20315;-83
2022/01/26 02:06:20;;;;;;;28.53;14.37;;;3.60;99.90;;;;;;4920076;28;20251;-83
2022/01/26 02:08:46;;;;;;;28.60;15.13;;;3.60;99.90;;;;;;4925755;28;20298;-82
2022/01/26 02:11:14;;;;;;;27.43;14.13;;;3.50;99.90;;;;;;4915754;28;20228;-83
2022/01/26 02:13:49;;;;;;;30.37;14.70;;;3.60;99.90;;;;;;4919901;28;20327;-85
2022/01/26 02:16:23;;;;;;;29.07;14.33;;;3.60;99.90;;;;;;4914811;28;20232;-83
2022/01/26 02:19:15;;;;;;;28.37;14.93;;;3.50;99.90;;;;;;4923501;28;20249;-83
2022/01/26 02:52:22;;;;;;;27.30;13.93;;;3.50;99.90;;;;;;5060827;27;20567;-81
2022/01/26 02:55:09;;;;;;;28.77;14.70;;;3.50;99.90;;;;;;5051668;28;20711;-82
2022/01/26 02:57:51;;;;;;;27.53;14.33;;;3.50;99.90;;;;;;5038473;28;20335;-83
2022/01/26 03:00:23;;;;;;;31.43;14.97;;;3.50;99.90;;;;;;5024364;28;20306;-81
2022/01/26 03:02:55;;;;;;;29.30;14.40;;;3.50;99.90;;;;;;5020073;28;20312;-82
2022/01/26 03:05:27;;;;;;;30.70;14.80;;;3.50;99.90;;;;;;5016983;28;20259;-82
2022/01/26 03:07:59;;;;;;;31.10;14.80;;;3.40;99.90;;;;;;5025036;28;20229;-81
2022/01/26 03:10:33;;;;;;;30.23;14.97;;;3.40;99.90;;;;;;5023468;28;20227;-81
2022/01/26 03:13:05;;;;;;;35.17;14.97;;;3.40;99.90;;;;;;5033251;28;20224;-81
2022/01/26 03:15:36;;;;;;;29.77;14.87;;;3.40;99.90;;;;;;5038140;28;20243;-81
2022/01/26 03:20:46;;;;;;;30.33;15.63;;;3.40;99.90;;;;;;5026647;28;20760;-82
2022/01/26 03:28:47;;;;;;;33.53;16.33;;;3.40;99.90;;;;;;5036357;28;20231;-81
2022/01/26 03:34:07;;;;;;;32.47;16.40;;;3.40;99.90;;;;;;5035564;28;20231;-82
2022/01/26 03:36:44;;;;;;;32.70;16.47;;;3.40;99.90;;;;;;5037525;28;20236;-82
2022/01/26 03:39:15;;;;;;;32.43;16.73;;;3.40;99.90;;;;;;5037920;28;20250;-84
2022/01/26 03:41:45;;;;;;;33.33;17.30;;;3.40;99.90;;;;;;5039333;28;20799;-84
2022/01/26 03:44:12;;;;;;;34.97;16.80;;;3.40;99.90;;;;;;5039072;28;20731;-82
2022/01/26 03:46:39;;;;;;;33.30;16.57;;;3.40;99.90;;;;;;5039879;28;20231;-81
2022/01/26 03:49:07;;;;;;;37.00;18.47;;;3.40;99.90;;;;;;5039743;28;20232;-82
2022/01/26 03:51:35;;;;;;;36.23;17.23;;;3.40;99.90;;;;;;5040359;28;20238;-82
2022/01/26 03:54:02;;;;;;;36.17;17.40;;;3.50;99.90;;;;;;5036713;28;20240;-82
2022/01/26 03:56:30;;;;;;;38.87;19.30;;;3.50;99.90;;;;;;5020019;28;20900;-82
2022/01/26 03:58:57;;;;;;;40.37;18.50;;;3.50;99.90;;;;;;5019713;28;20239;-82
2022/01/26 04:01:24;;;;;;;38.93;18.90;;;3.50;99.90;;;;;;5018482;28;20752;-83
2022/01/26 04:03:51;;;;;;;41.60;18.43;;;3.40;99.90;;;;;;5020773;28;20228;-84
2022/01/26 04:06:18;;;;;;;35.50;18.67;;;3.40;99.90;;;;;;5026119;28;20239;-83
2022/01/26 04:08:45;;;;;;;38.63;18.27;;;3.40;99.90;;;;;;5026223;28;20231;-82
2022/01/26 04:11:30;;;;;;;35.77;18.67;;;3.40;99.90;;;;;;5025736;28;20261;-82
2022/01/26 04:13:59;;;;;;;40.37;18.77;;;3.40;99.90;;;;;;5025033;28;20277;-81
2022/01/26 04:16:26;;;;;;;39.70;19.80;;;3.40;99.90;;;;;;5026586;28;20224;-81
2022/01/26 04:18:55;;;;;;;36.03;18.60;;;3.40;99.90;;;;;;5025571;28;20234;-82
2022/01/26 04:21:30;;;;;;;39.00;19.30;;;3.40;99.90;;;;;;5026938;28;20306;-81
2022/01/26 04:24:01;;;;;;;35.97;17.07;;;3.40;99.90;;;;;;5021211;28;20311;-81
2022/01/26 04:26:33;;;;;;;36.13;18.67;;;3.40;99.90;;;;;;5022837;28;20256;-81
2022/01/26 04:29:05;;;;;;;35.23;17.77;;;3.40;99.90;;;;;;5035896;28;20231;-81
2022/01/26 04:31:32;;;;;;;38.60;18.00;;;3.40;99.90;;;;;;5025734;28;20236;-81
2022/01/26 04:33:59;;;;;;;37.60;18.27;;;3.40;99.90;;;;;;5023893;28;20750;-81
2022/01/26 04:36:31;;;;;;;38.13;18.73;;;3.40;99.90;;;;;;5025255;28;20234;-81
2022/01/26 04:39:02;;;;;;;37.23;18.43;;;3.40;99.90;;;;;;5026973;28;20224;-81
2022/01/26 04:41:34;;;;;;;39.17;19.53;;;3.40;99.90;;;;;;5021941;28;20760;-82
2022/01/26 04:44:08;;;;;;;42.87;17.60;;;3.40;99.90;;;;;;5024231;28;20232;-82
2022/01/26 04:46:35;;;;;;;35.50;16.73;;;3.40;99.90;;;;;;5025058;28;20252;-82
2022/01/26 04:49:02;;;;;;;33.67;16.00;;;3.40;99.90;;;;;;5024250;28;20235;-83
2022/01/26 04:51:30;;;;;;;36.00;17.20;;;3.40;99.90;;;;;;5024095;28;20259;-82
2022/01/26 04:53:57;;;;;;;34.50;16.93;;;3.40;99.90;;;;;;5025770;28;20827;-82
2022/01/26 04:56:24;;;;;;;32.53;16.03;;;3.40;99.90;;;;;;5024944;28;21090;-81
2022/01/26 04:58:51;;;;;;;34.50;15.63;;;3.40;99.90;;;;;;5025650;28;20559;-84
2022/01/26 05:01:19;;;;;;;31.40;15.87;;;3.40;99.90;;;;;;5024807;28;20225;-81
2022/01/26 05:03:45;;;;;;;30.30;15.67;;;3.40;99.90;;;;;;5023908;28;20339;-81
2022/01/26 05:06:12;;;;;;;31.50;15.60;;;3.40;99.90;;;;;;5025239;28;20727;-81
2022/01/26 05:08:39;;;;;;;31.97;15.37;;;3.40;99.90;;;;;;5026177;28;20255;-81
2022/01/26 05:11:09;;;;;;;28.97;13.73;;;3.40;99.90;;;;;;5026045;28;20728;-80
2022/01/26 05:13:36;;;;;;;30.73;15.00;;;3.40;99.90;;;;;;5022115;28;20228;-84
2022/01/26 05:16:05;;;;;;;29.13;14.60;;;3.30;99.90;;;;;;5028179;28;20228;-82
2022/01/26 05:18:33;;;;;;;28.77;13.90;;;3.40;99.90;;;;;;5024360;28;20327;-84
2022/01/26 05:21:00;;;;;;;46.27;15.60;;;3.30;99.90;;;;;;5028104;28;20239;-83
2022/01/26 05:23:27;;;;;;;35.80;14.90;;;3.30;99.90;;;;;;5025491;28;20592;-83
2022/01/26 05:25:54;;;;;;;73.67;17.57;;;3.30;99.90;;;;;;5027945;28;20224;-83
2022/01/26 05:28:21;;;;;;;35.30;13.77;;;3.30;99.90;;;;;;5028069;28;20239;-84
2022/01/26 05:30:47;;;;;;;30.17;13.63;;;3.30;99.90;;;;;;5026860;28;20271;-81
2022/01/26 05:33:14;;;;;;;35.17;14.20;;;3.30;99.90;;;;;;5024500;28;20213;-81
2022/01/26 05:35:42;;;;;;;34.30;14.47;;;3.30;99.90;;;;;;5026898;28;20235;-82
2022/01/26 05:38:09;;;;;;;32.13;13.77;;;3.20;99.90;;;;;;5022910;28;20233;-82
2022/01/26 05:40:36;;;;;;;27.33;12.97;;;3.30;99.90;;;;;;5037645;28;20238;-82
2022/01/26 05:43:03;;;;;;;28.07;14.07;;;3.20;99.90;;;;;;5020750;28;20242;-81
2022/01/26 05:45:35;;;;;;;30.90;14.07;;;3.30;99.90;;;;;;5021250;28;20236;-81
2022/01/26 05:48:06;;;;;;;27.50;12.80;;;3.20;99.90;;;;;;5024539;28;20224;-82
2022/01/26 05:50:33;;;;;;;28.03;12.97;;;3.30;99.90;;;;;;5027750;28;20239;-81
2022/01/26 05:53:01;;;;;;;32.90;14.60;;;3.30;99.90;;;;;;5025646;28;20220;-81
2022/01/26 05:55:28;;;;;;;27.23;13.37;;;3.20;99.90;;;;;;5024915;28;20753;-82
2022/01/26 05:57:55;;;;;;;29.43;13.30;;;3.30;99.90;;;;;;5025217;28;20229;-82
2022/01/26 06:00:22;;;;;;;28.93;13.63;;;3.30;99.90;;;;;;5024619;28;20232;-81
2022/01/26 06:02:48;;;;;;;28.50;14.20;;;3.20;99.90;;;;;;5024799;28;20564;-83
2022/01/26 06:05:15;;;;;;;30.93;14.70;;;3.20;99.90;;;;;;5036139;28;20321;-82
2022/01/26 06:07:42;;;;;;;29.63;14.47;;;3.20;99.90;;;;;;5007884;28;20240;-83
2022/01/26 06:10:10;;;;;;;25.20;13.73;;;3.20;99.90;;;;;;5022740;28;20232;-82
2022/01/26 06:12:37;;;;;;;28.63;14.30;;;3.30;99.90;;;;;;5032628;28;20897;-82
2022/01/26 06:15:05;;;;;;;28.80;13.63;;;3.20;99.90;;;;;;5003316;28;20236;-82
2022/01/26 06:17:32;;;;;;;29.20;14.50;;;3.20;99.90;;;;;;5014390;28;20267;-82
2022/01/26 06:19:58;;;;;;;30.80;15.43;;;3.20;99.90;;;;;;5003489;28;20240;-82
2022/01/26 06:22:25;;;;;;;26.07;13.77;;;3.20;99.90;;;;;;5037905;28;20231;-82
2022/01/26 06:24:54;;;;;;;28.73;14.20;;;3.20;99.90;;;;;;5008570;28;20860;-82
2022/01/26 06:27:22;;;;;;;25.77;13.80;;;3.20;99.90;;;;;;5004241;28;20331;-82
2022/01/26 06:29:49;;;;;;;30.77;14.67;;;3.20;99.90;;;;;;5000317;28;20237;-83
2022/01/26 06:32:17;;;;;;;31.80;14.80;;;3.20;99.90;;;;;;5005342;28;20260;-82
2022/01/26 06:34:44;;;;;;;28.53;14.67;;;3.10;99.90;;;;;;5025155;28;20235;-82
2022/01/26 06:37:11;;;;;;;31.60;14.47;;;3.10;99.90;;;;;;5027616;28;20233;-82
2022/01/26 06:39:37;;;;;;;29.40;14.93;;;3.10;99.90;;;;;;5014795;28;20293;-82
2022/01/26 06:42:11;;;;;;;31.90;15.07;;;3.10;99.90;;;;;;5023004;28;20247;-82
2022/01/26 06:44:50;;;;;;;31.03;15.30;;;3.10;99.90;;;;;;5024802;28;20224;-81
2022/01/26 06:47:32;;;;;;;30.87;14.93;;;3.10;99.90;;;;;;5023040;28;20245;-82
2022/01/26 06:49:59;;;;;;;29.23;14.77;;;3.10;99.90;;;;;;5022599;28;20240;-81
2022/01/26 06:52:25;;;;;;;26.20;14.33;;;3.10;99.90;;;;;;5025827;28;20229;-82
2022/01/26 06:54:52;;;;;;;30.53;15.10;;;3.10;99.90;;;;;;5022683;28;20357;-82
2022/01/26 06:57:19;;;;;;;31.03;15.50;;;3.10;99.90;;;;;;5025706;28;20259;-82
2022/01/26 06:59:47;;;;;;;33.20;15.87;;;3.10;99.90;;;;;;5022562;28;20239;-83
2022/01/26 07:02:14;;;;;;;31.50;16.13;;;3.10;99.90;;;;;;5023893;28;20636;-82
2022/01/26 07:04:40;;;;;;;28.90;13.33;;;3.10;99.90;;;;;;5022020;28;20236;-82
2022/01/26 07:07:07;;;;;;;30.37;15.83;;;3.10;99.90;;;;;;5023817;28;20329;-82
2022/01/26 07:09:34;;;;;;;29.43;14.70;;;3.10;99.90;;;;;;5025431;28;20235;-82
2022/01/26 07:12:00;;;;;;;29.17;15.17;;;3.20;99.90;;;;;;5023609;28;20236;-83
2022/01/26 07:19:51;;;;;;;26.90;13.60;;;3.10;99.90;;;;;;5022255;28;20251;-82
2022/01/26 07:20:56;;;;;;;28.63;14.07;;;3.10;99.90;;;;;;5022012;28;20369;-81
2022/01/26 07:23:09;;;;;;;33.23;14.77;;;3.10;99.90;;;;;;5031355;28;20230;-82
2022/01/26 07:25:36;;;;;;;31.00;14.10;;;3.10;99.90;;;;;;5024122;28;20947;-82
2022/01/26 07:28:04;;;;;;;27.93;13.97;;;3.20;99.90;;;;;;5022887;28;20769;-81
2022/01/26 07:30:32;;;;;;;31.57;15.13;;;3.10;99.90;;;;;;5024640;28;20229;-81
2022/01/26 07:33:00;;;;;;;29.23;13.93;;;3.10;99.90;;;;;;5020385;28;20236;-82
2022/01/26 07:35:27;;;;;;;26.87;14.40;;;3.10;99.90;;;;;;5039630;28;20236;-82
2022/01/26 07:37:57;;;;;;;28.37;13.97;;;3.10;99.90;;;;;;5025894;28;20238;-82
2022/01/26 07:40:24;;;;;;;29.07;15.07;;;3.10;99.90;;;;;;5028675;28;20236;-82
2022/01/26 07:42:51;;;;;;;28.70;14.60;;;3.10;99.90;;;;;;5025676;28;20232;-83
2022/01/26 07:45:18;;;;;;;31.50;14.70;;;3.10;99.90;;;;;;5024883;28;20296;-82
2022/01/26 07:47:46;;;;;;;29.37;15.00;;;3.00;99.90;;;;;;5024933;28;20910;-82
2022/01/26 07:50:15;;;;;;;33.97;15.60;;;3.00;99.90;;;;;;5025970;28;20249;-82
2022/01/26 07:52:43;;;;;;;27.43;13.80;;;3.10;99.90;;;;;;5026048;28;20240;-82
2022/01/26 07:55:14;;;;;;;28.83;14.40;;;3.10;99.90;;;;;;5024225;28;20228;-82
2022/01/26 07:57:43;;;;;;;28.50;15.03;;;3.10;99.90;;;;;;5024836;28;20609;-82
2022/01/26 08:00:11;;;;;;;30.40;14.83;;;3.00;99.90;;;;;;5025327;28;20707;-82
2022/01/26 08:02:41;;;;;;;31.60;15.43;;;3.10;99.90;;;;;;5026522;28;20227;-82
2022/01/26 08:05:09;;;;;;;32.57;15.97;;;3.10;99.90;;;;;;5024240;28;20790;-82
2022/01/26 08:07:37;;;;;;;32.97;15.87;;;3.00;99.90;;;;;;5022658;28;20226;-82
2022/01/26 08:10:04;;;;;;;33.60;16.00;;;3.00;99.90;;;;;;5025112;28;20228;-82
2022/01/26 08:12:31;;;;;;;30.73;16.17;;;3.00;99.90;;;;;;5018786;28;20243;-82
2022/01/26 08:14:57;;;;;;;30.77;15.50;;;3.00;99.90;;;;;;5033313;28;20221;-82
2022/01/26 08:17:24;;;;;;;28.93;15.30;;;3.00;99.90;;;;;;5024121;28;20303;-82
2022/01/26 08:19:54;;;;;;;30.90;15.20;;;3.00;99.90;;;;;;5026278;28;20231;-83
2022/01/26 08:22:21;;;;;;;29.10;15.20;;;3.00;99.90;;;;;;5020346;28;20222;-82
2022/01/26 08:24:50;;;;;;;30.77;15.30;;;3.00;99.90;;;;;;5034766;28;20237;-82
2022/01/26 08:27:20;;;;;;;31.37;15.67;;;3.00;99.90;;;;;;5024314;28;20232;-82
2022/01/26 08:29:49;;;;;;;30.57;16.33;;;3.00;99.90;;;;;;5025464;28;20247;-83
2022/01/26 08:32:16;;;;;;;33.20;16.67;;;2.90;99.90;;;;;;5023477;28;20371;-82
2022/01/26 08:34:43;;;;;;;32.37;16.60;;;2.90;99.90;;;;;;5025251;28;20231;-82
2022/01/26 08:37:11;;;;;;;32.90;15.53;;;2.90;99.90;;;;;;5024225;28;20231;-82
2022/01/26 08:39:38;;;;;;;30.23;15.97;;;2.90;99.90;;;;;;5024509;28;20311;-82
2022/01/26 08:42:07;;;;;;;32.97;16.63;;;2.90;99.90;;;;;;5021878;28;20232;-83
2022/01/26 08:44:35;;;;;;;36.00;18.13;;;2.90;99.90;;;;;;5025719;28;20373;-82
2022/01/26 08:47:02;;;;;;;32.67;16.43;;;2.90;99.90;;;;;;5023045;28;20260;-82
2022/01/26 08:49:29;;;;;;;33.13;15.97;;;2.90;99.90;;;;;;5023722;28;20889;-82
2022/01/26 08:51:56;;;;;;;34.77;16.70;;;2.90;99.90;;;;;;5021921;28;20224;-82
2022/01/26 08:54:23;;;;;;;33.27;16.97;;;2.90;99.90;;;;;;5022925;28;20594;-83
2022/01/26 08:56:51;;;;;;;32.63;16.37;;;2.90;99.90;;;;;;5026085;28;20944;-82
2022/01/26 08:59:21;;;;;;;37.10;18.33;;;2.90;99.90;;;;;;5024763;28;20225;-82
2022/01/26 09:01:48;;;;;;;31.87;18.17;;;2.90;99.90;;;;;;5036744;28;20252;-82
2022/01/26 09:04:15;;;;;;;35.60;18.13;;;3.00;99.90;;;;;;5024487;28;20683;-82
2022/01/26 09:06:52;;;;;;;35.03;17.67;;;3.00;99.90;;;;;;5025905;28;20235;-82
2022/01/26 09:09:20;;;;;;;35.47;17.73;;;3.10;99.90;;;;;;5025297;28;20236;-82
2022/01/26 09:11:47;;;;;;;35.77;17.90;;;3.00;99.90;;;;;;5024960;28;20273;-82
2022/01/26 09:14:18;;;;;;;33.87;17.30;;;3.00;99.90;;;;;;5023896;28;20246;-82
2022/01/26 09:16:48;;;;;;;34.63;17.53;;;3.00;99.90;;;;;;5024422;28;20228;-83
2022/01/26 09:19:26;;;;;;;38.47;18.57;;;2.90;99.90;;;;;;5024143;28;20228;-82
2022/01/26 09:21:53;;;;;;;35.87;17.47;;;3.00;99.90;;;;;;5024720;28;20230;-83
2022/01/26 09:24:20;;;;;;;38.43;18.67;;;2.90;99.90;;;;;;5024153;28;20289;-82
2022/01/26 09:26:47;;;;;;;36.10;18.77;;;2.90;99.90;;;;;;5024277;28;20251;-82
2022/01/26 09:29:14;;;;;;;34.73;17.40;;;2.90;99.90;;;;;;5023811;28;21006;-82
2022/01/26 09:31:42;;;;;;;36.33;18.67;;;2.90;99.90;;;;;;5023306;28;20231;-82
2022/01/26 09:34:10;;;;;;;40.23;18.77;;;2.90;99.90;;;;;;5021609;28;20224;-82
2022/01/26 09:36:37;;;;;;;35.67;18.47;;;2.90;99.90;;;;;;5025312;28;20236;-82
2022/01/26 09:39:04;;;;;;;38.00;18.30;;;2.90;99.90;;;;;;5025349;28;20228;-82
2022/01/26 09:41:31;;;;;;;39.03;19.50;;;2.90;99.90;;;;;;5023538;28;20328;-82
2022/01/26 09:44:02;;;;;;;38.40;19.30;;;3.00;99.90;;;;;;5023812;28;20350;-82
2022/01/26 09:46:29;;;;;;;42.70;19.13;;;2.90;99.90;;;;;;5023161;28;20234;-82
2022/01/26 09:48:56;;;;;;;39.53;19.63;;;2.90;99.90;;;;;;5022386;28;20257;-82
2022/01/26 09:51:24;;;;;;;42.00;19.90;;;2.90;99.90;;;;;;5023645;28;20299;-82
2022/01/26 09:54:00;;;;;;;41.73;20.80;;;2.90;99.90;;;;;;5024179;28;20228;-82
2022/01/26 09:56:27;;;;;;;40.63;20.63;;;2.90;99.90;;;;;;5023889;28;20231;-83
2022/01/26 09:58:54;;;;;;;41.77;20.23;;;2.90;99.90;;;;;;5038297;28;20232;-83
2022/01/26 10:01:21;;;;;;;42.03;19.97;;;3.00;99.90;;;;;;5023517;28;20238;-82
2022/01/26 10:03:49;;;;;;;42.60;19.87;;;3.00;99.90;;;;;;5022582;28;20233;-81
2022/01/26 10:06:21;;;;;;;39.60;19.70;;;3.00;99.90;;;;;;5024410;28;20338;-80
2022/01/26 10:09:24;;;;;;;41.13;21.03;;;3.00;99.90;;;;;;5022216;28;20225;-80
2022/01/26 10:17:28;;;;;;;41.60;21.17;;;3.10;99.90;;;;;;5020607;28;20275;-80
2022/01/26 10:19:56;;;;;;;42.63;20.47;;;3.10;99.90;;;;;;5024369;28;20258;-80
2022/01/26 10:22:31;;;;;;;43.17;21.73;;;3.10;99.90;;;;;;5027195;28;20808;-80
2022/01/26 10:25:11;;;;;;;45.40;21.93;;;3.10;99.90;;;;;;5027408;28;20719;-80
2022/01/26 10:27:39;;;;;;;44.37;21.87;;;3.10;99.90;;;;;;5025742;28;20310;-80
2022/01/26 10:30:09;;;;;;;43.80;21.23;;;3.10;99.90;;;;;;5026542;28;20242;-79
2022/01/26 10:32:36;;;;;;;44.17;21.70;;;3.10;99.90;;;;;;5024446;28;20269;-80
2022/01/26 10:35:05;;;;;;;36.40;19.87;;;3.10;99.90;;;;;;5024835;28;20231;-80
2022/01/26 10:37:32;;;;;;;42.83;21.03;;;3.10;99.90;;;;;;5024071;28;20706;-81
2022/01/26 10:40:15;;;;;;;43.67;21.33;;;3.10;99.90;;;;;;5025077;28;20229;-78
2022/01/26 10:42:53;;;;;;;41.37;20.33;;;3.10;99.90;;;;;;5021518;28;20247;-79
2022/01/26 10:45:37;;;;;;;40.73;20.33;;;3.10;99.90;;;;;;5027676;28;20290;-79
2022/01/26 10:48:19;;;;;;;43.43;20.50;;;3.10;99.90;;;;;;5026087;28;20228;-80
2022/01/26 10:51:09;;;;;;;41.20;20.83;;;3.10;99.90;;;;;;5025515;28;20416;-80
2022/01/26 10:53:43;;;;;;;46.17;21.97;;;3.10;99.90;;;;;;5022357;28;20229;-80
2022/01/26 10:56:11;;;;;;;42.17;19.83;;;3.00;99.90;;;;;;5022430;28;20873;-79
2022/01/26 10:58:38;;;;;;;43.00;19.53;;;3.00;99.90;;;;;;5022434;28;20236;-79
2022/01/26 11:01:06;;;;;;;40.17;21.23;;;3.00;99.90;;;;;;5023412;28;20236;-80
2022/01/26 11:03:33;;;;;;;43.63;20.67;;;3.00;99.90;;;;;;5023381;28;20300;-79
2022/01/26 11:06:01;;;;;;;46.53;21.70;;;3.00;99.90;;;;;;5025689;28;20599;-79
2022/01/26 11:08:30;;;;;;;42.30;21.00;;;3.00;99.90;;;;;;5023789;28;20318;-80
2022/01/26 11:10:57;;;;;;;39.20;20.37;;;2.90;99.90;;;;;;5033005;28;20219;-80
2022/01/26 11:13:28;;;;;;;43.27;20.00;;;2.90;99.90;;;;;;5022970;28;20238;-77
2022/01/26 11:16:07;;;;;;;39.13;19.10;;;2.90;99.90;;;;;;5029301;28;20234;-79
2022/01/26 11:18:45;;;;;;;54.00;22.57;;;2.90;99.90;;;;;;5024588;28;21004;-79
2022/01/26 11:21:15;;;;;;;51.47;20.17;;;2.90;99.90;;;;;;5041935;28;20662;-78
2022/01/26 11:23:42;;;;;;;43.67;18.00;;;2.80;99.90;;;;;;5026477;28;20220;-78
2022/01/26 11:26:22;;;;;;;41.30;17.97;;;2.80;99.90;;;;;;5037926;28;20696;-79
2022/01/26 11:28:51;;;;;;;40.90;18.87;;;2.80;99.90;;;;;;5027322;28;20239;-79
2022/01/26 11:31:19;;;;;;;37.17;18.77;;;2.80;99.90;;;;;;5023997;28;20233;-79
2022/01/26 11:33:49;;;;;;;38.20;18.70;;;2.70;99.90;;;;;;5028538;28;20224;-79
2022/01/26 11:36:18;;;;;;;44.43;20.70;;;2.70;99.90;;;;;;5031546;28;20256;-80
2022/01/26 11:42:11;;;;;;;45.77;20.07;;;2.70;99.90;;;;;;5028745;28;20240;-79
2022/01/26 11:47:30;;;;;;;42.50;18.47;;;2.70;99.90;;;;;;5027213;28;20671;-79
2022/01/26 11:50:07;;;;;;;42.03;19.20;;;2.70;99.90;;;;;;5017663;28;20229;-80
2022/01/26 11:52:38;;;;;;;43.87;19.17;;;2.70;99.90;;;;;;5029575;28;20233;-79
2022/01/26 11:55:09;;;;;;;41.67;19.67;;;2.70;99.90;;;;;;5029534;28;20836;-79
2022/01/26 11:57:43;;;;;;;46.97;20.80;;;2.70;99.90;;;;;;5025111;28;20219;-79
2022/01/26 12:00:13;;;;;;;47.13;20.93;;;2.70;99.90;;;;;;5026736;28;20228;-79
2022/01/26 12:02:54;;;;;;;44.57;20.13;;;2.70;99.90;;;;;;5026383;28;20234;-79
2022/01/26 12:05:24;;;;;;;46.73;21.43;;;2.70;99.90;;;;;;5027606;28;20226;-78
2022/01/26 12:07:53;;;;;;;44.73;20.43;;;2.70;99.90;;;;;;5026768;28;20228;-81
2022/01/26 12:10:28;;;;;;;47.60;20.77;;;2.70;99.90;;;;;;5028925;28;20224;-80
2022/01/26 12:13:02;;;;;;;43.20;20.30;;;2.80;99.90;;;;;;5027388;28;20334;-80
2022/01/26 12:15:41;;;;;;;41.30;20.20;;;2.80;99.90;;;;;;5023579;28;20233;-80
2022/01/26 12:18:19;;;;;;;46.33;21.37;;;2.80;99.90;;;;;;5020175;28;20239;-80
2022/01/26 12:32:45;;;;;;;49.80;23.70;;;2.80;99.90;;;;;;5024193;28;20254;-78
2022/01/26 12:35:22;;;;;;;47.93;21.17;;;2.80;99.90;;;;;;5017595;28;20233;-79
2022/01/26 12:37:55;;;;;;;46.93;21.03;;;2.80;99.90;;;;;;5026391;28;20234;-80
2022/01/26 12:43:11;;;;;;;47.17;21.70;;;2.80;99.90;;;;;;5021034;28;20371;-81
2022/01/26 12:45:38;;;;;;;47.60;21.17;;;2.80;99.90;;;;;;5024733;28;20228;-79
2022/01/26 12:48:09;;;;;;;49.73;21.03;;;2.80;99.90;;;;;;5023963;28;20914;-78
2022/01/26 12:50:39;;;;;;;51.00;23.03;;;2.80;99.90;;;;;;5026210;28;20249;-80
2022/01/26 12:53:07;;;;;;;45.80;21.20;;;2.80;99.90;;;;;;5023629;28;20229;-81
2022/01/26 12:55:36;;;;;;;50.33;22.03;;;2.80;99.90;;;;;;5036330;28;20234;-79
2022/01/26 12:58:04;;;;;;;52.63;22.03;;;2.80;99.90;;;;;;5023720;28;20280;-78
2022/01/26 13:00:43;;;;;;;48.10;21.67;;;2.80;99.90;;;;;;5023719;28;20250;-80
2022/01/26 13:03:13;;;;;;;50.73;21.80;;;2.80;99.90;;;;;;5015611;28;20565;-78
2022/01/26 13:05:40;;;;;;;48.20;21.17;;;2.70;99.90;;;;;;5025021;28;20327;-78
2022/01/26 13:08:08;;;;;;;49.83;21.27;;;2.70;99.90;;;;;;5024661;28;20266;-79
2022/01/26 13:10:35;;;;;;;52.90;23.23;;;2.80;99.90;;;;;;5024597;28;20783;-84
2022/01/26 13:13:13;;;;;;;51.03;22.07;;;2.70;99.90;;;;;;5024054;28;20230;-79
2022/01/26 13:15:55;;;;;;;44.77;20.50;;;2.70;99.90;;;;;;5020911;28;20233;-80
2022/01/26 13:21:36;;;;;;;51.37;21.83;;;2.70;99.90;;;;;;5022001;28;20239;-79
2022/01/26 13:24:12;;;;;;;49.10;21.03;;;2.70;99.90;;;;;;5023747;28;20735;-80
2022/01/26 13:26:48;;;;;;;47.77;21.50;;;2.70;99.90;;;;;;5024154;28;20238;-80
2022/01/26 13:29:27;;;;;;;48.23;20.83;;;2.70;99.90;;;;;;5020622;28;20331;-80
2022/01/26 13:35:05;;;;;;;51.17;22.10;;;2.70;99.90;;;;;;4996617;28;20249;-80
2022/01/26 13:37:43;;;;;;;50.13;22.53;;;2.70;99.90;;;;;;5009358;28;20620;-80
2022/01/26 13:40:25;;;;;;;48.73;22.00;;;2.70;99.90;;;;;;5017713;28;20346;-81
2022/01/26 13:43:28;;;;;;;49.33;21.87;;;2.70;99.90;;;;;;5024500;28;20424;-80
2022/01/26 13:46:24;;;;;;;48.07;22.03;;;2.70;99.90;;;;;;5022728;28;20238;-80
2022/01/26 13:51:42;;;;;;;49.77;21.87;;;2.70;99.90;;;;;;5003141;28;20230;-80
2022/01/26 13:54:30;;;;;;;47.87;20.70;;;2.70;99.90;;;;;;5000507;28;20607;-79
2022/01/26 13:57:11;;;;;;;53.23;22.67;;;2.70;99.90;;;;;;5011086;28;20228;-79
2022/01/26 13:59:45;;;;;;;55.67;24.37;;;2.70;99.90;;;;;;5021173;28;20314;-79
2022/01/26 14:02:12;;;;;;;50.60;21.43;;;2.70;99.90;;;;;;5014842;28;20224;-79
2022/01/26 14:04:39;;;;;;;48.60;21.90;;;2.80;99.90;;;;;;5019606;28;20235;-79
2022/01/26 14:07:07;;;;;;;50.53;23.13;;;2.70;99.90;;;;;;5021908;28;20314;-82
2022/01/26 14:09:33;;;;;;;51.43;22.53;;;2.70;99.90;;;;;;5025077;28;20236;-81
2022/01/26 14:12:01;;;;;;;49.33;22.03;;;2.70;99.90;;;;;;5025516;28;20240;-81
2022/01/26 14:14:33;;;;;;;51.47;23.03;;;2.80;99.90;;;;;;5023831;28;20253;-79
2022/01/26 14:17:02;;;;;;;48.73;22.17;;;2.80;99.90;;;;;;5023721;28;20231;-81
2022/01/26 14:19:37;;;;;;;55.90;24.40;;;2.90;99.90;;;;;;5023439;28;20235;-81
2022/01/26 14:25:03;;;;;;;50.43;22.53;;;2.80;99.90;;;;;;5024626;28;20238;-83
2022/01/26 14:27:38;;;;;;;52.70;23.93;;;2.80;99.90;;;;;;5033202;28;20235;-81
2022/01/26 14:30:17;;;;;;;55.63;23.63;;;2.80;99.90;;;;;;5017362;28;20218;-81
2022/01/26 14:33:06;;;;;;;58.00;24.30;;;2.80;99.90;;;;;;5023142;28;20237;-81
2022/01/26 14:52:53;;;;;;;54.03;23.20;;;2.80;99.90;;;;;;5026742;28;20736;-81
2022/01/26 14:55:41;;;;;;;54.27;22.30;;;2.80;99.90;;;;;;5023584;28;20219;-81
2022/01/26 15:08:41;;;;;;;56.13;25.47;;;2.80;99.90;;;;;;4984246;28;20270;-81
2022/01/26 15:10:12;;;;;;;52.00;23.33;;;2.80;99.90;;;;;;5025895;28;20238;-81
2022/01/26 15:40:09;;;;;;;54.97;24.40;;;2.90;99.90;;;;;;5004467;28;20248;-81